Aberdeen, California
Current Conditions -  °F | °C
As of 8:56 AM on Monday 22 Dec 2014 (Local Time) from KBIH Reporting Station
Clear Clear  
Wind Chill: 56°   Ceiling: Unl
Heat Index: 56°   Visibility: 10mi
Dew Point: 26°   Wind: 6mph
Humidity: 32%   Direction: 320°NW
Pressure: 30.21"   Gusts: NA
Location:  36.9237°N, 117.897°W
Report Text: KBIH 221656Z AUTO 32005KT 10SM CLR 13/M03 A3021 RMK AO2 SLP205 T01331033
Loading
Personal Weather Stations






























Interactive Weather Map New forecast layout! Learn more

10-Day Weather Forecast

Advertisements
Track Severe Weather on mobile